LFBH - La Rochelle/Lale, France
Situé à: SO 43km
Dernière mise à jour: 17-Jan-2019 10:30:00
Clear
Clear
 Wind from WNW
Vent: WNW 15 km/h
Température: 9°C
Refroidissement éolien: 7°C
Point de rosée: 6°C
Humidité: 82%
Baromètre: 1017 hPa
Conditions: Clear
Visibilité: supérieur à 10 km
2019/01/17 09:30 LFBH 170930Z AUTO 30008KT CAVOK 09/06 Q1017 NOSIG
LFRI - La Roche/Les Ajo, France
Situé à: ONO 48km
Dernière mise à jour: 17-Jan-2019 10:30:00
Clear
Clear
 Wind from W
Vent: W 11 km/h
Température: 6°C
Refroidissement éolien: 4°C
Point de rosée: 4°C
Humidité: 87%
Baromètre: 1016 hPa
Conditions: Clear
Visibilité: supérieur à 10 km
2019/01/17 09:30 LFRI 170930Z AUTO 28006KT CAVOK 06/04 Q1016 TEMPO 4000 SHRA SCT020TCU
 
LFBI - Poitiers/Biard(A, France
Situé à: E 88km
Dernière mise à jour: 17-Jan-2019 10:30:00
Clear
Clear
 Wind from W
Vent: W 15 km/h
Température: 6°C
Refroidissement éolien: 3°C
Point de rosée: 4°C
Humidité: 87%
Baromètre: 1015 hPa
Conditions: Clear
Visibilité: supérieur à 10 km
2019/01/17 09:30 LFBI 170930Z AUTO 26008KT CAVOK 06/04 Q1015 NOSIG
LFRS - Nantes/Chateau B, France
Situé à: NO 97km
Dernière mise à jour: 17-Jan-2019 10:30:00
Clear
Clear
 Wind from WNW
Vent: WNW 11 km/h
Température: 7°C
Refroidissement éolien: 5°C
Point de rosée: 4°C
Humidité: 81%
Baromètre: 1016 hPa
Conditions: Clear
Visibilité: supérieur à 10 km
2019/01/17 09:30 LFRS 170930Z AUTO 29006KT CAVOK 07/04 Q1016 TEMPO 4000 SHRA SCT020TCU
 
LFBG - Cognac/Chateaube, France
Situé à: SSE 98km
Dernière mise à jour: 17-Jan-2019 10:30:00
Few Clouds
Few Clouds
 Wind from W
Vent: W 9 km/h
Température: 7°C
Refroidissement éolien: 6°C
Point de rosée: 5°C
Humidité: 87%
Baromètre: 1017 hPa
Nuages: Few Clouds
Visibilité: 10 km
Détails des nuages: Few Clouds 1097 m
2019/01/17 09:30 LFBG 170930Z AUTO 26005KT 9999 FEW036 07/05 Q1017 TEMPO 4000 SHRA BKN025TCU

Traduction française Météo Fontenay le Comte

Metar display script from Saratoga-Weather.org